| time (UTC) | temp C | wind direction | speed KPH | gust KPH | rain 1hr cm | rain 24hr cm | rain mn cm | humidity % | barometer mb |
| 20260507085828 | 11 | 255 | 0.0 | 0.0 | 0.00 | 3.05 | 3.05 | 96 | 1011.7 |
| 20260507085330 | 11 | 255 | 0.0 | 0.0 | 0.00 | 3.05 | 3.05 | 96 | 1011.7 |
| 20260507084827 | 11 | 255 | 0.0 | 0.0 | 0.00 | 3.05 | 3.05 | 96 | 1011.5 |
| 20260507084326 | 11 | 255 | 0.0 | 0.0 | 0.00 | 3.05 | 3.05 | 97 | 1011.5 |
| 20260507083827 | 11 | 255 | 0.0 | 0.0 | 0.00 | 3.05 | 3.05 | 96 | 1011.3 |
| 20260507083756 | 11 | 255 | 0.0 | 0.0 | 0.00 | 3.05 | 3.05 | 96 | 1011.3 |
| 20260507082825 | 11 | 255 | 0.0 | 0.0 | 0.00 | 3.05 | 3.05 | 96 | 1011.2 |
| 20260507082327 | 11 | 255 | 0.0 | 0.0 | 0.00 | 3.05 | 3.05 | 97 | 1011.2 |
| 20260507081836 | 11 | 255 | 0.0 | 0.0 | 0.00 | 3.05 | 3.05 | 97 | 1011.1 |
| 20260507081825 | 11 | 255 | 0.0 | 0.0 | 0.00 | 3.05 | 3.05 | 97 | 1011.1 |
| 20260507080822 | 11 | 255 | 0.0 | 0.0 | 0.00 | 3.05 | 3.05 | 97 | 1011.1 |
| 20260507080321 | 11 | 255 | 0.0 | 0.0 | 0.00 | 3.05 | 3.05 | 97 | 1011.1 |
| 20260507075821 | 11 | 255 | 0.0 | 0.0 | 0.00 | 3.05 | 3.05 | 97 | 1011.1 |
| 20260507075322 | 11 | 255 | 0.0 | 0.0 | 0.00 | 3.05 | 3.05 | 97 | 1010.9 |
| 20260507075257 | 11 | 255 | 0.0 | 0.0 | 0.00 | 3.05 | 3.05 | 97 | 1010.9 |
| 20260507074321 | 11 | 255 | 0.0 | 0.0 | 0.00 | 3.05 | 3.05 | 97 | 1010.9 |
| 20260507073820 | 11 | 255 | 0.0 | 0.0 | 0.03 | 3.05 | 3.05 | 97 | 1010.8 |
| 20260507073323 | 11 | 255 | 0.0 | 0.0 | 0.03 | 3.05 | 3.05 | 97 | 1010.7 |
| 20260507072823 | 11 | 255 | 0.0 | 0.0 | 0.03 | 3.05 | 3.05 | 97 | 1010.7 |
| 20260507072327 | 11 | 255 | 0.0 | 0.0 | 0.03 | 3.05 | 3.05 | 97 | 1010.7 |
| 20260507071821 | 11 | 255 | 0.0 | 0.0 | 0.03 | 3.05 | 3.05 | 97 | 1010.5 |
| 20260507071319 | 11 | 255 | 0.0 | 0.0 | 0.05 | 3.05 | 3.05 | 97 | 1010.5 |
| 20260507071256 | 11 | 255 | 0.0 | 0.0 | 0.05 | 3.05 | 3.05 | 97 | 1010.5 |
| 20260507070320 | 11 | 255 | 0.0 | 0.0 | 0.05 | 3.05 | 3.05 | 97 | 1010.5 |
| 20260507065819 | 11 | 255 | 0.0 | 0.0 | 0.05 | 3.02 | 3.05 | 97 | 1010.4 |
| 20260507065321 | 11 | 255 | 0.0 | 0.0 | 0.05 | 3.02 | 3.05 | 97 | 1010.4 |
| 20260507064819 | 11 | 255 | 0.0 | 0.0 | 0.05 | 3.02 | 3.05 | 97 | 1010.5 |
| 20260507064321 | 11 | 255 | 0.0 | 0.0 | 0.05 | 3.02 | 3.05 | 97 | 1010.4 |
| 20260507064243 | 11 | 255 | 0.0 | 0.0 | 0.05 | 3.02 | 3.02 | 97 | 1010.3 |
| 20260507063316 | 10 | 255 | 0.0 | 0.0 | 0.05 | 3.02 | 3.02 | 97 | 1010.3 |
| 20260507063251 | 11 | 255 | 0.0 | 0.0 | 0.05 | 3.02 | 3.02 | 97 | 1010.1 |
| 20260507062317 | 11 | 255 | 0.0 | 0.0 | 0.05 | 3.02 | 3.02 | 97 | 1010.2 |
| 20260507061814 | 11 | 255 | 0.0 | 0.0 | 0.05 | 3.02 | 3.02 | 97 | 1010.1 |
| 20260507061329 | 11 | 255 | 0.0 | 0.0 | 0.03 | 3.02 | 3.00 | 97 | 1010.0 |
| 20260507060813 | 11 | 255 | 0.0 | 0.0 | 0.03 | 3.02 | 3.00 | 97 | 1009.9 |
| 20260507060746 | 11 | 255 | 0.0 | 0.0 | 0.03 | 3.02 | 3.00 | 97 | 1009.9 |
| 20260507055813 | 11 | 255 | 0.0 | 0.0 | 0.03 | 3.00 | 3.00 | 97 | 1010.0 |
| 20260507055316 | 11 | 255 | 0.0 | 0.0 | 0.03 | 3.00 | 3.00 | 97 | 1010.0 |
| 20260507054814 | 11 | 255 | 0.0 | 0.0 | 0.00 | 3.00 | 2.97 | 97 | 1009.9 |
| 20260507054752 | 11 | 255 | 0.0 | 0.0 | 0.00 | 3.00 | 2.97 | 97 | 1009.9 |
| 20260507053813 | 11 | 255 | 0.0 | 0.0 | 0.03 | 3.00 | 2.97 | 97 | 1009.8 |
| 20260507053744 | 11 | 255 | 0.0 | 0.0 | 0.03 | 3.00 | 2.97 | 97 | 1009.7 |
| 20260507052813 | 11 | 255 | 0.0 | 0.0 | 0.03 | 3.00 | 2.97 | 97 | 1009.7 |
| 20260507052309 | 11 | 255 | 0.0 | 0.0 | 0.03 | 3.00 | 2.97 | 97 | 1009.7 |
| 20260507051811 | 11 | 255 | 0.0 | 0.0 | 0.05 | 3.00 | 2.97 | 97 | 1009.5 |
| 20260507051320 | 11 | 255 | 0.0 | 0.0 | 0.05 | 3.00 | 2.97 | 97 | 1009.4 |
| 20260507050811 | 11 | 255 | 0.0 | 0.0 | 0.05 | 3.00 | 2.97 | 97 | 1009.4 |
| 20260507050309 | 11 | 255 | 0.0 | 0.0 | 0.05 | 3.00 | 2.97 | 97 | 1009.3 |
| 20260507045807 | 11 | 255 | 0.0 | 0.0 | 0.08 | 2.92 | 2.97 | 97 | 1009.2 |
| 20260507045309 | 11 | 255 | 0.0 | 0.0 | 0.10 | 2.92 | 2.97 | 97 | 1009.2 |
| 20260507044805 | 11 | 255 | 0.0 | 0.0 | 0.13 | 2.92 | 2.97 | 97 | 1009.2 |
| 20260507044307 | 11 | 255 | 0.0 | 0.0 | 0.15 | 2.92 | 2.97 | 97 | 1009.1 |
| 20260507043805 | 11 | 255 | 0.0 | 0.0 | 0.15 | 2.92 | 2.97 | 97 | 1009.1 |
| 20260507043307 | 11 | 255 | 0.0 | 0.0 | 0.15 | 2.92 | 2.97 | 97 | 1009.0 |
| 20260507042806 | 11 | 255 | 0.0 | 0.0 | 0.20 | 2.92 | 2.97 | 97 | 1009.0 |
| 20260507042307 | 11 | 255 | 0.0 | 0.0 | 0.23 | 2.92 | 2.97 | 97 | 1009.0 |
| 20260507041807 | 11 | 255 | 0.0 | 0.0 | 0.20 | 2.92 | 2.95 | 97 | 1008.9 |
| 20260507041306 | 11 | 255 | 0.0 | 0.0 | 0.20 | 2.92 | 2.95 | 97 | 1008.8 |
| 20260507040809 | 11 | 255 | 0.0 | 0.0 | 0.20 | 2.92 | 2.95 | 97 | 1008.9 |
| 20260507040308 | 11 | 255 | 0.0 | 0.0 | 0.18 | 2.92 | 2.92 | 97 | 1008.9 |
| 20260507035809 | 11 | 255 | 0.0 | 0.0 | 0.15 | 2.77 | 2.87 | 97 | 1008.9 |
| 20260507035319 | 11 | 255 | 0.0 | 0.0 | 0.15 | 2.77 | 2.87 | 97 | 1008.8 |
| 20260507034827 | 11 | 255 | 0.0 | 0.0 | 0.10 | 2.77 | 2.84 | 97 | 1008.8 |
| 20260507034810 | 11 | 255 | 0.0 | 0.0 | 0.13 | 2.77 | 2.87 | 97 | 1008.8 |
| 20260507034800 | 11 | 255 | 0.0 | 0.0 | 0.08 | 2.77 | 2.82 | 97 | 1008.7 |
| 20260507033734 | 11 | 255 | 0.0 | 0.0 | 0.05 | 2.77 | 2.79 | 97 | 1008.7 |
| 20260507032806 | 11 | 255 | 0.0 | 0.0 | 0.03 | 2.77 | 2.77 | 97 | 1008.7 |
| 20260507032737 | 11 | 255 | 0.0 | 0.0 | 0.03 | 2.77 | 2.74 | 97 | 1008.6 |
| 20260507031805 | 11 | 255 | 0.0 | 0.0 | 0.03 | 2.77 | 2.74 | 97 | 1008.7 |
| 20260507031307 | 11 | 255 | 0.0 | 0.0 | 0.03 | 2.77 | 2.74 | 97 | 1008.7 |
| 20260507030805 | 11 | 255 | 0.0 | 0.0 | 0.03 | 2.77 | 2.74 | 97 | 1008.7 |
| 20260507030308 | 11 | 255 | 0.0 | 0.0 | 0.03 | 2.77 | 2.74 | 96 | 1008.7 |
| 20260507025807 | 11 | 255 | 0.0 | 0.0 | 0.03 | 2.74 | 2.74 | 96 | 1008.7 |
| 20260507025307 | 11 | 255 | 0.0 | 0.0 | 0.03 | 2.74 | 2.74 | 97 | 1008.7 |
| 20260507025252 | 11 | 255 | 0.0 | 0.0 | 0.03 | 2.74 | 2.74 | 97 | 1008.7 |
| 20260507024307 | 11 | 255 | 0.0 | 0.0 | 0.03 | 2.74 | 2.74 | 97 | 1008.6 |
| 20260507023847 | 11 | 255 | 0.0 | 0.0 | 0.03 | 2.74 | 2.74 | 97 | 1008.5 |
| 20260507023818 | 11 | 255 | 0.0 | 0.0 | 0.03 | 2.74 | 2.74 | 97 | 1008.5 |
| 20260507022808 | 11 | 255 | 0.0 | 0.0 | 0.03 | 2.74 | 2.74 | 97 | 1008.5 |
| 20260507022306 | 11 | 255 | 0.0 | 0.0 | 0.00 | 2.74 | 2.72 | 97 | 1008.4 |
| 20260507021810 | 11 | 255 | 0.0 | 0.0 | 0.00 | 2.74 | 2.72 | 96 | 1008.4 |
| 20260507021306 | 11 | 255 | 0.0 | 0.0 | 0.03 | 2.74 | 2.72 | 96 | 1008.3 |
| 20260507020807 | 11 | 255 | 0.0 | 0.0 | 0.05 | 2.74 | 2.72 | 96 | 1008.3 |
| 20260507020733 | 11 | 255 | 0.0 | 0.0 | 0.05 | 2.74 | 2.72 | 96 | 1008.2 |
| 20260507015811 | 11 | 255 | 0.0 | 0.0 | 0.08 | 2.69 | 2.72 | 96 | 1008.1 |
| 20260507015307 | 11 | 255 | 0.0 | 0.0 | 0.10 | 2.69 | 2.72 | 96 | 1008.2 |
| 20260507014810 | 11 | 255 | 0.0 | 0.0 | 0.13 | 2.69 | 2.72 | 96 | 1008.2 |
| 20260507014309 | 11 | 255 | 0.0 | 0.0 | 0.15 | 2.69 | 2.72 | 96 | 1008.1 |
| 20260507013807 | 11 | 255 | 0.0 | 0.0 | 0.20 | 2.69 | 2.72 | 96 | 1008.1 |
| 20260507013738 | 11 | 255 | 0.0 | 0.0 | 0.28 | 2.69 | 2.72 | 96 | 1008.0 |
| 20260507012806 | 11 | 255 | 0.0 | 0.0 | 0.36 | 2.69 | 2.72 | 96 | 1008.1 |
| 20260507012307 | 11 | 255 | 0.0 | 0.0 | 0.46 | 2.69 | 2.72 | 96 | 1008.1 |
| 20260507011806 | 11 | 255 | 0.0 | 0.0 | 0.51 | 2.69 | 2.72 | 96 | 1008.1 |
| 20260507011306 | 11 | 255 | 0.0 | 0.0 | 0.58 | 2.69 | 2.69 | 96 | 1008.0 |
| 20260507010805 | 11 | 255 | 0.0 | 0.0 | 0.61 | 2.69 | 2.69 | 96 | 1007.9 |
| 20260507010302 | 11 | 255 | 0.0 | 0.0 | 0.61 | 2.69 | 2.67 | 96 | 1007.9 |
| 20260507005804 | 11 | 255 | 0.0 | 0.0 | 0.64 | 2.03 | 2.64 | 96 | 1007.9 |
| 20260507005750 | 11 | 255 | 0.0 | 0.0 | 0.66 | 2.03 | 2.62 | 96 | 1007.8 |
| 20260507004817 | 11 | 255 | 0.0 | 0.0 | 0.71 | 2.03 | 2.59 | 96 | 1007.7 |
| 20260507004318 | 11 | 255 | 0.0 | 0.0 | 0.81 | 2.03 | 2.57 | 96 | 1007.6 |
| 20260507003301 | 11 | 255 | 0.0 | 0.0 | 1.09 | 2.03 | 2.41 | 96 | 1007.7 |
| 20260507002801 | 11 | 255 | 0.0 | 0.0 | 1.37 | 2.03 | 2.34 | 95 | 1007.7 |
| 20260507002306 | 11 | 255 | 0.0 | 0.0 | 1.55 | 2.03 | 2.26 | 95 | 1007.7 |
| 20260507001803 | 11 | 255 | 0.0 | 0.0 | 1.75 | 2.03 | 2.18 | 95 | 1007.5 |
| 20260507001326 | 11 | 255 | 0.0 | 0.0 | 1.85 | 2.03 | 2.06 | 95 | 1007.7 |
| 20260507001307 | 11 | 255 | 0.0 | 0.0 | 1.83 | 2.03 | 2.11 | 95 | 1007.5 |
| 20260507000420 | 11 | 255 | 0.0 | 0.0 | 1.93 | 0.15 | 1.98 | 95 | 1007.6 |
| 20260507000321 | 11 | 255 | 0.0 | 0.0 | 1.85 | 2.03 | 2.03 | 95 | 1007.8 |
| 20260506235254 | 11 | 255 | 0.0 | 0.0 | 1.93 | 0.15 | 1.93 | 95 | 1007.6 |
| 20260506234747 | 11 | 255 | 0.0 | 0.0 | 1.85 | 0.15 | 1.85 | 94 | 1007.5 |
| 20260506234249 | 11 | 255 | 0.0 | 0.0 | 1.75 | 0.15 | 1.70 | 94 | 1007.6 |
| 20260506233747 | 11 | 255 | 0.0 | 0.0 | 1.57 | 0.15 | 1.55 | 94 | 1007.7 |
| 20260506233248 | 12 | 255 | 0.0 | 0.0 | 1.32 | 0.15 | 1.27 | 94 | 1008.0 |
| 20260506232929 | 12 | 272 | 0.0 | 0.0 | 0.97 | 0.15 | 0.91 | 93 | 1007.7 |
| 20260506232636 | 12 | 71 | 0.0 | 0.0 | 0.30 | 0.18 | 0.28 | 93 | 1007.8 |
| 20260506232402 | 12 | 306 | 0.0 | 0.0 | 0.69 | 0.18 | 0.64 | 93 | 1007.7 |
| 20260506230750 | 12 | 23 | 0.0 | 0.0 | 0.23 | 0.20 | 0.20 | 93 | 1007.7 |
| 20260506230242 | 12 | 103 | 0.0 | 0.0 | 0.18 | 0.20 | 0.18 | 92 | 1007.5 |
| 20260506225741 | 12 | 102 | 0.0 | 0.0 | 0.08 | 0.10 | 0.05 | 92 | 1007.6 |
| 20260506225238 | 13 | 257 | 0.0 | 0.0 | 0.03 | 0.13 | 0.03 | 92 | 1007.6 |
| 20260506225219 | 13 | 282 | 0.0 | 0.0 | 0.03 | 0.15 | 0.03 | 92 | 1007.5 |
| 20260506224238 | 13 | 282 | 0.0 | 0.0 | 0.00 | 0.18 | 0.00 | 93 | 1007.3 |
| 20260506223736 | 13 | 282 | 0.0 | 0.0 | 0.00 | 0.20 | 0.00 | 93 | 1007.2 |
| 20260506223234 | 13 | 282 | 0.0 | 0.0 | 0.00 | 0.23 | 0.00 | 93 | 1007.2 |
| 20260506222734 | 13 | 282 | 0.0 | 0.0 | 0.00 | 0.23 | 0.00 | 93 | 1007.2 |
| 20260506222236 | 13 | 282 | 0.0 | 0.0 | 0.00 | 0.23 | 0.00 | 93 | 1007.2 |
| 20260506221735 | 13 | 282 | 0.0 | 0.0 | 0.00 | 0.23 | 0.00 | 93 | 1007.2 |
| 20260506221233 | 13 | 282 | 0.0 | 0.0 | 0.00 | 0.25 | 0.00 | 93 | 1007.0 |
| 20260506220734 | 13 | 282 | 0.0 | 0.0 | 0.00 | 0.25 | 0.00 | 93 | 1007.1 |
| 20260506220234 | 13 | 282 | 0.0 | 0.0 | 0.00 | 0.28 | 0.00 | 94 | 1007.1 |
| 20260506220228 | 13 | 282 | 0.0 | 0.0 | 0.00 | 0.30 | 0.30 | 94 | 1007.0 |
| 20260506215233 | 13 | 282 | 0.0 | 0.0 | 0.00 | 0.41 | 0.30 | 94 | 1007.1 |
| 20260506214730 | 13 | 282 | 0.0 | 0.0 | 0.00 | 0.46 | 0.30 | 94 | 1007.1 |
| 20260506214231 | 13 | 282 | 0.0 | 0.0 | 0.00 | 0.53 | 0.30 | 93 | 1007.0 |
| 20260506214200 | 13 | 282 | 0.0 | 0.0 | 0.00 | 0.66 | 0.30 | 93 | 1007.1 |
| 20260506213238 | 13 | 282 | 0.0 | 0.0 | 0.00 | 0.76 | 0.30 | 93 | 1007.0 |
| 20260506212736 | 13 | 282 | 0.0 | 0.0 | 0.00 | 0.89 | 0.30 | 93 | 1007.0 |
| 20260506212658 | 13 | 282 | 0.0 | 0.0 | 0.00 | 1.07 | 0.30 | 93 | 1006.9 |
| 20260506211729 | 13 | 282 | 0.0 | 0.0 | 0.00 | 1.12 | 0.30 | 93 | 1006.8 |
| 20260506211231 | 13 | 282 | 0.0 | 0.0 | 0.00 | 1.14 | 0.30 | 93 | 1006.9 |
| 20260506210732 | 13 | 282 | 0.0 | 0.0 | 0.00 | 1.17 | 0.30 | 93 | 1006.8 |
| 20260506210231 | 13 | 282 | 0.0 | 0.0 | 0.00 | 1.17 | 0.30 | 93 | 1006.7 |
| 20260506205731 | 13 | 282 | 0.0 | 0.0 | 0.00 | 1.17 | 0.30 | 93 | 1006.6 |
| 20260506205644 | 13 | 282 | 0.0 | 0.0 | 0.00 | 1.17 | 0.30 | 93 | 1006.5 |
| 20260506204731 | 13 | 282 | 0.0 | 0.0 | 0.00 | 1.17 | 0.30 | 93 | 1006.5 |
| 20260506204231 | 13 | 282 | 0.0 | 0.0 | 0.00 | 1.17 | 0.30 | 93 | 1006.5 |
| 20260506203734 | 13 | 282 | 0.0 | 0.0 | 0.00 | 1.17 | 0.30 | 93 | 1006.6 |
| 20260506203724 | 14 | 282 | 0.0 | 0.0 | 0.00 | 1.17 | 0.30 | 93 | 1006.6 |
| 20260506202732 | 14 | 282 | 0.0 | 0.0 | 0.00 | 1.17 | 0.30 | 93 | 1006.5 |
| 20260506202656 | 14 | 282 | 0.0 | 0.0 | 0.00 | 1.17 | 0.30 | 93 | 1006.6 |
| 20260506201728 | 14 | 282 | 0.0 | 0.0 | 0.00 | 1.17 | 0.30 | 93 | 1006.6 |
| 20260506201226 | 14 | 282 | 0.0 | 0.0 | 0.03 | 1.17 | 0.30 | 93 | 1006.6 |
| 20260506200750 | 14 | 282 | 0.0 | 0.0 | 0.03 | 1.17 | 0.30 | 92 | 1006.5 |
| 20260506200730 | 14 | 282 | 0.0 | 0.0 | 0.03 | 1.17 | 0.30 | 92 | 1006.4 |
| 20260506195725 | 14 | 282 | 0.0 | 0.0 | 0.03 | 1.14 | 0.30 | 92 | 1006.6 |
| 20260506195226 | 14 | 282 | 0.0 | 0.0 | 0.03 | 1.14 | 0.30 | 92 | 1006.3 |
| 20260506194724 | 14 | 282 | 0.0 | 0.0 | 0.03 | 1.14 | 0.30 | 91 | 1006.2 |
| 20260506194222 | 14 | 282 | 0.0 | 0.0 | 0.03 | 1.14 | 0.30 | 91 | 1006.2 |
| 20260506193733 | 15 | 282 | 0.0 | 0.0 | 0.03 | 1.14 | 0.30 | 91 | 1006.1 |
| 20260506193219 | 15 | 282 | 0.0 | 0.0 | 0.03 | 1.14 | 0.30 | 90 | 1006.2 |
| 20260506192717 | 15 | 282 | 0.0 | 0.0 | 0.03 | 1.14 | 0.30 | 89 | 1006.0 |
| 20260506192235 | 16 | 282 | 0.0 | 0.0 | 0.03 | 1.14 | 0.30 | 87 | 1006.0 |
| 20260506192218 | 15 | 282 | 0.0 | 0.0 | 0.03 | 1.14 | 0.30 | 88 | 1005.9 |
| 20260506192211 | 16 | 282 | 0.0 | 0.0 | 0.00 | 1.14 | 0.28 | 86 | 1005.8 |
| 20260506191711 | 16 | 282 | 0.0 | 0.0 | 0.00 | 1.14 | 0.28 | 85 | 1005.7 |
| 20260506191209 | 16 | 282 | 0.0 | 0.0 | 0.00 | 1.14 | 0.28 | 85 | 1005.7 |
| 20260506191151 | 16 | 282 | 0.0 | 0.0 | 0.00 | 1.14 | 0.28 | 84 | 1005.7 |
| 20260506185214 | 16 | 282 | 0.0 | 0.0 | 0.00 | 1.14 | 0.28 | 84 | 1005.6 |
| 20260506184711 | 16 | 282 | 0.0 | 0.0 | 0.00 | 1.14 | 0.28 | 84 | 1005.4 |
| 20260506184208 | 16 | 282 | 0.0 | 0.0 | 0.00 | 1.14 | 0.28 | 84 | 1005.5 |
| 20260506183708 | 16 | 282 | 0.0 | 0.0 | 0.00 | 1.14 | 0.28 | 84 | 1005.5 |
| 20260506183206 | 16 | 282 | 0.0 | 0.0 | 0.00 | 1.14 | 0.28 | 83 | 1005.4 |
| 20260506182708 | 16 | 282 | 0.0 | 0.0 | 0.00 | 1.14 | 0.28 | 83 | 1005.3 |
| 20260506182648 | 16 | 282 | 0.0 | 0.0 | 0.00 | 1.14 | 0.28 | 82 | 1005.2 |
| 20260506181706 | 16 | 282 | 0.0 | 0.0 | 0.00 | 1.14 | 0.28 | 83 | 1005.2 |
| 20260506181205 | 16 | 282 | 0.0 | 0.0 | 0.00 | 1.14 | 0.28 | 83 | 1005.2 |
| 20260506180748 | 17 | 282 | 0.0 | 0.0 | 0.00 | 1.14 | 0.28 | 82 | 1005.1 |
| 20260506180217 | 17 | 282 | 0.0 | 0.0 | 0.00 | 1.14 | 0.28 | 82 | 1005.1 |
| 20260506175914 | 17 | 282 | 0.0 | 0.0 | 0.00 | 1.14 | 0.28 | 83 | 1005.2 |
| 20260506175155 | 17 | 282 | 0.0 | 0.0 | 0.00 | 1.14 | 0.28 | 81 | 1005.1 |
| 20260506174232 | 18 | 282 | 0.0 | 0.0 | 0.00 | 1.14 | 0.28 | 79 | 1005.0 |
| 20260506174206 | 18 | 282 | 0.0 | 0.0 | 0.00 | 1.14 | 0.28 | 80 | 1005.0 |
| 20260506173209 | 18 | 282 | 0.0 | 0.0 | 0.00 | 1.14 | 0.28 | 77 | 1004.9 |
| 20260506172707 | 18 | 282 | 0.0 | 0.0 | 0.00 | 1.14 | 0.28 | 77 | 1004.7 |
| 20260506172205 | 18 | 282 | 0.0 | 0.0 | 0.00 | 1.14 | 0.28 | 76 | 1004.6 |
| 20260506172142 | 18 | 282 | 0.0 | 0.0 | 0.00 | 1.14 | 0.28 | 75 | 1004.7 |
| 20260506171407 | 19 | 282 | 0.0 | 0.0 | 0.00 | 1.14 | 0.28 | 74 | 1004.6 |
| 20260506170203 | 19 | 282 | 0.0 | 0.0 | 0.00 | 1.14 | 0.28 | 71 | 1004.6 |
| 20260506165700 | 20 | 282 | 0.0 | 0.0 | 0.00 | 1.14 | 0.28 | 71 | 1004.7 |
| 20260506165201 | 20 | 282 | 0.0 | 0.0 | 0.00 | 1.14 | 0.28 | 70 | 1004.6 |
| 20260506164720 | 20 | 282 | 0.0 | 0.0 | 0.00 | 1.14 | 0.28 | 70 | 1004.6 |
| 20260506164705 | 20 | 282 | 0.0 | 0.0 | 0.00 | 1.14 | 0.28 | 70 | 1004.7 |
| 20260506163702 | 20 | 282 | 0.0 | 0.0 | 0.00 | 1.14 | 0.28 | 71 | 1004.4 |
| 20260506163202 | 20 | 282 | 0.0 | 0.0 | 0.00 | 1.14 | 0.28 | 68 | 1004.5 |
| 20260506162818 | 20 | 324 | 0.0 | 0.0 | 0.00 | 1.14 | 0.28 | 67 | 1004.7 |
| 20260506162733 | 20 | 282 | 0.0 | 0.0 | 0.00 | 1.14 | 0.28 | 67 | 1004.6 |
| 20260506161703 | 20 | 18 | 0.0 | 0.0 | 0.00 | 1.14 | 0.28 | 67 | 1004.7 |
| 20260506161221 | 20 | 30 | 0.0 | 0.0 | 0.00 | 1.14 | 0.28 | 65 | 1004.7 |
| 20260506160702 | 21 | 30 | 0.0 | 0.0 | 0.00 | 1.14 | 0.28 | 65 | 1004.7 |
| 20260506160233 | 20 | 0 | 0.0 | 0.0 | 0.00 | 1.14 | 0.28 | 66 | 1004.7 |
| 20260506155701 | 20 | 0 | 0.0 | 0.0 | 0.00 | 1.14 | 0.28 | 64 | 1004.9 |
| 20260506155158 | 20 | 0 | 0.0 | 0.0 | 0.00 | 1.14 | 0.28 | 62 | 1004.9 |
| 20260506154657 | 20 | 0 | 0.0 | 0.0 | 0.00 | 1.14 | 0.28 | 62 | 1004.9 |
| 20260506154159 | 21 | 0 | 0.0 | 0.0 | 0.00 | 1.14 | 0.28 | 60 | 1004.9 |
| 20260506153657 | 21 | 0 | 0.0 | 0.0 | 0.00 | 1.14 | 0.28 | 59 | 1004.9 |
| 20260506153156 | 21 | 72 | 0.0 | 0.0 | 0.00 | 1.14 | 0.28 | 58 | 1004.9 |
| 20260506152657 | 21 | 348 | 0.0 | 0.0 | 0.00 | 1.14 | 0.28 | 55 | 1004.9 |
| 20260506152648 | 21 | 348 | 0.0 | 0.0 | 0.00 | 1.14 | 0.28 | 53 | 1004.9 |
| 20260506151657 | 21 | 72 | 0.0 | 0.0 | 0.00 | 1.14 | 0.28 | 55 | 1004.9 |
| 20260506151652 | 21 | 72 | 0.0 | 0.0 | 0.00 | 1.14 | 0.28 | 53 | 1004.9 |
| 20260506151152 | 22 | 72 | 0.0 | 0.0 | 0.00 | 1.14 | 0.28 | 52 | 1004.9 |
| 20260506151141 | 22 | 21 | 0.0 | 0.0 | 0.00 | 1.14 | 0.28 | 56 | 1004.9 |
| 20260506145655 | 22 | 3 | 0.0 | 0.0 | 0.00 | 1.14 | 0.28 | 55 | 1004.7 |
| 20260506145156 | 22 | 37 | 0.0 | 0.0 | 0.00 | 1.14 | 0.28 | 54 | 1005.0 |
| 20260506144655 | 21 | 37 | 0.0 | 0.0 | 0.00 | 1.14 | 0.28 | 54 | 1005.0 |
| 20260506144155 | 21 | 93 | 0.0 | 0.0 | 0.00 | 1.14 | 0.28 | 54 | 1005.0 |
| 20260506144139 | 22 | 93 | 0.0 | 0.0 | 0.00 | 1.14 | 0.28 | 55 | 1005.0 |
| 20260506143227 | 21 | 93 | 0.0 | 0.0 | 0.00 | 1.14 | 0.28 | 55 | 1005.1 |
| 20260506143201 | 21 | 93 | 0.0 | 0.0 | 0.00 | 1.14 | 0.28 | 57 | 1004.9 |
| 20260506142157 | 22 | 93 | 0.0 | 0.0 | 0.00 | 1.14 | 0.28 | 53 | 1005.0 |
| 20260506141654 | 22 | 93 | 0.0 | 0.0 | 0.00 | 1.14 | 0.28 | 53 | 1005.0 |
| 20260506141155 | 22 | 90 | 0.0 | 0.0 | 0.00 | 1.14 | 0.28 | 53 | 1005.1 |
| 20260506140655 | 22 | 97 | 0.0 | 0.0 | 0.00 | 1.14 | 0.28 | 53 | 1005.1 |
| 20260506140640 | 22 | 31 | 0.0 | 0.0 | 0.00 | 1.14 | 0.28 | 55 | 1005.2 |
| 20260506135653 | 22 | 0 | 0.0 | 0.0 | 0.00 | 1.14 | 0.28 | 55 | 1005.2 |
| 20260506135153 | 22 | 0 | 0.0 | 0.0 | 0.00 | 1.14 | 0.28 | 54 | 1005.2 |
| 20260506135137 | 22 | 0 | 0.0 | 0.0 | 0.00 | 1.14 | 0.28 | 54 | 1005.3 |
| 20260506134148 | 22 | 106 | 0.0 | 0.0 | 0.00 | 1.14 | 0.28 | 53 | 1005.4 |
| 20260506133648 | 22 | 97 | 0.0 | 0.0 | 0.00 | 1.14 | 0.28 | 54 | 1005.4 |
| 20260506133148 | 22 | 104 | 0.0 | 0.0 | 0.00 | 1.14 | 0.28 | 54 | 1005.5 |
| 20260506132645 | 22 | 68 | 0.0 | 0.0 | 0.00 | 1.14 | 0.28 | 55 | 1005.6 |
| 20260506132148 | 22 | 66 | 0.0 | 0.0 | 0.00 | 1.14 | 0.28 | 56 | 1005.4 |
| 20260506131650 | 22 | 104 | 0.0 | 0.0 | 0.00 | 1.14 | 0.28 | 53 | 1005.6 |
| 20260506131148 | 22 | 104 | 0.0 | 0.0 | 0.00 | 1.14 | 0.28 | 60 | 1005.6 |
| 20260506130645 | 21 | 93 | 0.0 | 0.0 | 0.00 | 1.14 | 0.28 | 55 | 1005.6 |
| 20260506130145 | 22 | 93 | 0.0 | 0.0 | 0.00 | 1.14 | 0.28 | 56 | 1005.7 |
| 20260506125652 | 22 | 85 | 0.0 | 0.0 | 0.00 | 1.14 | 0.28 | 57 | 1005.7 |
| 20260506125644 | 22 | 100 | 0.0 | 0.0 | 0.00 | 1.14 | 0.28 | 52 | 1005.6 |
| 20260506124646 | 22 | 78 | 0.0 | 0.0 | 0.00 | 1.14 | 0.28 | 57 | 1005.6 |
| 20260506124142 | 21 | 78 | 0.0 | 0.0 | 0.00 | 1.14 | 0.28 | 56 | 1005.8 |
| 20260506123639 | 21 | 78 | 0.0 | 0.0 | 0.00 | 1.14 | 0.28 | 58 | 1005.9 |
| 20260506123141 | 21 | 79 | 0.0 | 0.0 | 0.00 | 1.14 | 0.28 | 56 | 1005.9 |
| 20260506122638 | 21 | 86 | 0.0 | 0.0 | 0.00 | 1.14 | 0.28 | 57 | 1005.9 |
| 20260506122142 | 21 | 90 | 0.0 | 0.0 | 0.00 | 1.14 | 0.28 | 58 | 1005.9 |
| 20260506122133 | 20 | 93 | 0.0 | 0.0 | 0.00 | 1.14 | 0.28 | 60 | 1005.9 |
| 20260506121138 | 20 | 86 | 0.0 | 0.0 | 0.00 | 1.14 | 0.28 | 58 | 1005.9 |
| 20260506120637 | 21 | 97 | 0.0 | 0.0 | 0.00 | 1.14 | 0.28 | 56 | 1005.9 |
| 20260506120138 | 21 | 97 | 0.0 | 0.0 | 0.00 | 1.14 | 0.28 | 58 | 1005.9 |
| 20260506115636 | 21 | 86 | 0.0 | 0.0 | 0.00 | 1.14 | 0.28 | 59 | 1005.9 |
| 20260506115134 | 21 | 86 | 0.0 | 0.0 | 0.00 | 1.14 | 0.28 | 59 | 1005.9 |
| 20260506114633 | 20 | 97 | 0.0 | 0.0 | 0.00 | 1.14 | 0.28 | 56 | 1005.9 |
| 20260506114336 | 20 | 93 | 0.0 | 0.0 | 0.00 | 1.14 | 0.28 | 61 | 1005.9 |
| 20260506113131 | 20 | 106 | 0.0 | 0.0 | 0.00 | 1.14 | 0.28 | 61 | 1005.9 |
| 20260506112633 | 20 | 87 | 0.0 | 0.0 | 0.00 | 1.14 | 0.28 | 60 | 1005.9 |
| 20260506112131 | 20 | 92 | 0.0 | 0.0 | 0.00 | 1.14 | 0.28 | 61 | 1006.0 |
| 20260506111759 | 20 | 59 | 0.0 | 0.0 | 0.00 | 1.14 | 0.28 | 62 | 1006.0 |
| 20260506111746 | 20 | 59 | 0.0 | 0.0 | 0.00 | 1.14 | 0.28 | 62 | 1005.9 |
| 20260506111659 | 20 | 106 | 0.0 | 0.0 | 0.00 | 1.14 | 0.28 | 63 | 1005.9 |
| 20260506110141 | 20 | 62 | 0.0 | 0.0 | 0.00 | 1.14 | 0.28 | 63 | 1005.9 |
| 20260506105627 | 20 | 106 | 0.0 | 0.0 | 0.00 | 1.14 | 0.28 | 63 | 1006.1 |
| 20260506105128 | 20 | 86 | 0.0 | 0.0 | 0.00 | 1.14 | 0.28 | 65 | 1006.0 |
| 20260506104626 | 20 | 86 | 0.0 | 0.0 | 0.00 | 1.14 | 0.28 | 65 | 1006.0 |
| 20260506104124 | 20 | 99 | 0.0 | 0.0 | 0.00 | 1.14 | 0.28 | 64 | 1005.8 |
| 20260506103623 | 20 | 92 | 0.0 | 0.0 | 0.00 | 1.14 | 0.28 | 66 | 1005.9 |
| 20260506103124 | 20 | 93 | 0.0 | 0.0 | 0.00 | 1.14 | 0.28 | 64 | 1005.9 |
| 20260506102625 | 20 | 59 | 0.0 | 0.0 | 0.00 | 1.14 | 0.28 | 64 | 1005.9 |
| 20260506102120 | 19 | 59 | 0.0 | 0.0 | 0.00 | 1.14 | 0.28 | 67 | 1006.0 |
| 20260506101622 | 20 | 0 | 0.0 | 0.0 | 0.00 | 1.14 | 0.28 | 66 | 1006.0 |
| 20260506101557 | 19 | 73 | 0.0 | 0.0 | 0.00 | 1.14 | 0.28 | 63 | 1005.8 |
| 20260506100625 | 20 | 72 | 0.0 | 0.0 | 0.00 | 1.14 | 0.28 | 73 | 1005.8 |
| 20260506100341 | 19 | 82 | 0.0 | 0.0 | 0.00 | 1.14 | 0.28 | 72 | 1005.9 |
| 20260506100205 | 19 | 72 | 0.0 | 0.0 | 0.00 | 1.14 | 0.28 | 67 | 1005.9 |
| 20260506095122 | 18 | 82 | 0.0 | 0.0 | 0.00 | 1.14 | 0.28 | 68 | 1005.8 |
| 20260506094620 | 18 | 106 | 0.0 | 0.0 | 0.00 | 1.14 | 0.28 | 68 | 1006.0 |
| 20260506094124 | 18 | 71 | 0.0 | 0.0 | 0.00 | 1.14 | 0.28 | 70 | 1006.0 |
| 20260506093619 | 18 | 71 | 0.0 | 0.0 | 0.00 | 1.14 | 0.28 | 71 | 1005.9 |
| 20260506093117 | 18 | 71 | 0.0 | 0.0 | 0.00 | 1.14 | 0.28 | 72 | 1005.8 |
| 20260506092616 | 18 | 106 | 0.0 | 0.0 | 0.00 | 1.14 | 0.28 | 72 | 1005.8 |
| 20260506092116 | 18 | 106 | 0.0 | 0.0 | 0.00 | 1.14 | 0.28 | 71 | 1005.8 |
| 20260506091615 | 18 | 106 | 0.0 | 0.0 | 0.00 | 1.14 | 0.28 | 69 | 1005.8 |
| 20260506091119 | 18 | 76 | 0.0 | 0.0 | 0.00 | 1.14 | 0.28 | 72 | 1005.9 |
| 20260506090622 | 18 | 56 | 0.0 | 0.0 | 0.00 | 1.14 | 0.28 | 72 | 1005.7 |
| 20260506090613 | 18 | 76 | 0.0 | 0.0 | 0.00 | 1.14 | 0.28 | 74 | 1005.9 |